sensor_id;sensor_type;location;lat;lon;timestamp;pressure;altitude;pressure_sealevel;temperature;humidity
78673;BME280;67988;60.086;30.354;2023-07-31T00:01:21;100472.97;;;15.99;74.41
78673;BME280;67988;60.086;30.354;2023-07-31T00:03:48;100480.88;;;16.01;74.21
78673;BME280;67988;60.086;30.354;2023-07-31T00:06:16;100445.19;;;15.74;74.47
78673;BME280;67988;60.086;30.354;2023-07-31T00:08:42;100479.53;;;15.97;74.56
78673;BME280;67988;60.086;30.354;2023-07-31T00:11:11;100476.28;;;15.93;74.53
78673;BME280;67988;60.086;30.354;2023-07-31T00:13:38;100487.03;;;15.93;74.34
78673;BME280;67988;60.086;30.354;2023-07-31T00:16:05;100483.69;;;15.91;74.88
78673;BME280;67988;60.086;30.354;2023-07-31T00:18:33;100471.38;;;15.80;75.08
78673;BME280;67988;60.086;30.354;2023-07-31T00:21:00;100448.78;;;15.57;74.99
78673;BME280;67988;60.086;30.354;2023-07-31T00:23:27;100495.06;;;15.85;74.98
78673;BME280;67988;60.086;30.354;2023-07-31T00:25:54;100498.59;;;15.85;74.62
78673;BME280;67988;60.086;30.354;2023-07-31T00:28:22;100495.91;;;15.85;74.92
78673;BME280;67988;60.086;30.354;2023-07-31T00:30:49;100491.69;;;15.83;74.52
78673;BME280;67988;60.086;30.354;2023-07-31T00:33:16;100496.06;;;15.84;74.66
78673;BME280;67988;60.086;30.354;2023-07-31T00:35:43;100498.03;;;15.82;74.62
78673;BME280;67988;60.086;30.354;2023-07-31T00:38:10;100470.59;;;15.62;74.63
78673;BME280;67988;60.086;30.354;2023-07-31T00:40:39;100503.09;;;15.85;74.67
78673;BME280;67988;60.086;30.354;2023-07-31T00:43:06;100499.56;;;15.84;74.43
78673;BME280;67988;60.086;30.354;2023-07-31T00:45:36;100507.13;;;15.81;74.76
78673;BME280;67988;60.086;30.354;2023-07-31T00:48:03;100504.09;;;15.84;74.69
78673;BME280;67988;60.086;30.354;2023-07-31T00:50:33;100502.41;;;15.83;74.09
78673;BME280;67988;60.086;30.354;2023-07-31T00:53:00;100489.59;;;15.69;74.32
78673;BME280;67988;60.086;30.354;2023-07-31T00:55:27;100507.13;;;15.81;74.32
78673;BME280;67988;60.086;30.354;2023-07-31T00:57:54;100510.63;;;15.81;74.08
78673;BME280;67988;60.086;30.354;2023-07-31T01:00:22;100516.31;;;15.78;73.87
78673;BME280;67988;60.086;30.354;2023-07-31T01:02:51;100473.75;;;15.58;73.87
78673;BME280;67988;60.086;30.354;2023-07-31T01:05:23;100510.47;;;15.83;74.18
78673;BME280;67988;60.086;30.354;2023-07-31T01:07:59;100515.53;;;15.86;73.77
78673;BME280;67988;60.086;30.354;2023-07-31T01:10:35;100509.47;;;15.84;73.88
78673;BME280;67988;60.086;30.354;2023-07-31T01:13:04;100519.25;;;15.93;73.55
78673;BME280;67988;60.086;30.354;2023-07-31T01:15:32;100505.00;;;15.93;73.66
78673;BME280;67988;60.086;30.354;2023-07-31T01:18:01;100510.19;;;15.94;73.61
78673;BME280;67988;60.086;30.354;2023-07-31T01:20:30;100511.72;;;15.97;73.75
78673;BME280;67988;60.086;30.354;2023-07-31T01:23:22;100510.56;;;15.99;73.75
78673;BME280;67988;60.086;30.354;2023-07-31T01:26:11;100510.56;;;15.99;73.74
78673;BME280;67988;60.086;30.354;2023-07-31T01:28:48;100501.47;;;15.92;73.35
78673;BME280;67988;60.086;30.354;2023-07-31T01:31:21;100474.44;;;15.85;73.08
78673;BME280;67988;60.086;30.354;2023-07-31T01:33:50;100504.72;;;16.04;73.09
78673;BME280;67988;60.086;30.354;2023-07-31T01:36:20;100499.19;;;16.05;73.30
78673;BME280;67988;60.086;30.354;2023-07-31T01:38:47;100497.34;;;16.06;73.01
78673;BME280;67988;60.086;30.354;2023-07-31T01:41:17;100492.66;;;16.08;72.65
78673;BME280;67988;60.086;30.354;2023-07-31T01:43:45;100495.72;;;16.13;72.75
78673;BME280;67988;60.086;30.354;2023-07-31T01:46:12;100490.53;;;16.19;72.40
78673;BME280;67988;60.086;30.354;2023-07-31T01:48:39;100500.66;;;16.25;72.50
78673;BME280;67988;60.086;30.354;2023-07-31T01:51:06;100491.75;;;16.33;72.25
78673;BME280;67988;60.086;30.354;2023-07-31T01:53:33;100458.47;;;16.18;72.44
78673;BME280;67988;60.086;30.354;2023-07-31T01:56:00;100495.50;;;16.40;72.28
78673;BME280;67988;60.086;30.354;2023-07-31T01:58:31;100493.16;;;16.45;71.77
78673;BME280;67988;60.086;30.354;2023-07-31T02:00:58;100487.44;;;16.48;71.64
78673;BME280;67988;60.086;30.354;2023-07-31T02:03:25;100494.66;;;16.48;71.66
78673;BME280;67988;60.086;30.354;2023-07-31T02:05:54;100495.50;;;16.48;71.61
78673;BME280;67988;60.086;30.354;2023-07-31T02:08:21;100495.19;;;16.51;71.40
78673;BME280;67988;60.086;30.354;2023-07-31T02:10:48;100488.28;;;16.49;71.29
78673;BME280;67988;60.086;30.354;2023-07-31T02:13:15;100484.97;;;16.55;71.52
78673;BME280;67988;60.086;30.354;2023-07-31T02:15:45;100488.72;;;16.62;71.43
78673;BME280;67988;60.086;30.354;2023-07-31T02:18:12;100489.91;;;16.67;70.98
78673;BME280;67988;60.086;30.354;2023-07-31T02:20:39;100484.19;;;16.70;70.88
78673;BME280;67988;60.086;30.354;2023-07-31T02:23:06;100494.97;;;16.79;71.04
78673;BME280;67988;60.086;30.354;2023-07-31T02:25:34;100489.41;;;16.80;70.79
78673;BME280;67988;60.086;30.354;2023-07-31T02:28:01;100485.91;;;16.80;71.10
78673;BME280;67988;60.086;30.354;2023-07-31T02:30:28;100487.75;;;16.87;70.54
78673;BME280;67988;60.086;30.354;2023-07-31T02:32:57;100491.97;;;16.90;70.73
78673;BME280;67988;60.086;30.354;2023-07-31T02:35:24;100491.97;;;16.90;70.83
78673;BME280;67988;60.086;30.354;2023-07-31T02:37:51;100491.47;;;16.94;70.87
78673;BME280;67988;60.086;30.354;2023-07-31T02:40:19;100486.44;;;16.99;70.82
78673;BME280;67988;60.086;30.354;2023-07-31T02:42:46;100480.22;;;16.91;70.55
78673;BME280;67988;60.086;30.354;2023-07-31T02:45:13;100469.47;;;16.91;70.50
78673;BME280;67988;60.086;30.354;2023-07-31T02:47:41;100441.56;;;16.84;70.39
78673;BME280;67988;60.086;30.354;2023-07-31T02:50:10;100469.28;;;17.08;70.16
78673;BME280;67988;60.086;30.354;2023-07-31T02:52:37;100445.09;;;17.00;70.00
78673;BME280;67988;60.086;30.354;2023-07-31T02:55:05;100470.31;;;17.24;69.64
78673;BME280;67988;60.086;30.354;2023-07-31T02:57:32;100478.72;;;17.29;70.06
78673;BME280;67988;60.086;30.354;2023-07-31T02:59:59;100464.94;;;17.32;69.92
78673;BME280;67988;60.086;30.354;2023-07-31T03:02:26;100472.31;;;17.46;69.43
78673;BME280;67988;60.086;30.354;2023-07-31T03:04:54;100471.09;;;17.56;69.25
78673;BME280;67988;60.086;30.354;2023-07-31T03:07:22;100462.41;;;17.63;68.79
78673;BME280;67988;60.086;30.354;2023-07-31T03:09:49;100466.44;;;17.67;68.67
78673;BME280;67988;60.086;30.354;2023-07-31T03:12:17;100466.25;;;17.68;68.60
78673;BME280;67988;60.086;30.354;2023-07-31T03:14:45;100466.72;;;17.80;68.55
78673;BME280;67988;60.086;30.354;2023-07-31T03:17:12;100462.19;;;17.88;68.44
78673;BME280;67988;60.086;30.354;2023-07-31T03:19:39;100463.69;;;17.91;67.84
78673;BME280;67988;60.086;30.354;2023-07-31T03:22:06;100471.44;;;17.94;68.09
78673;BME280;67988;60.086;30.354;2023-07-31T03:24:35;100468.22;;;17.90;67.84
78673;BME280;67988;60.086;30.354;2023-07-31T03:27:02;100463.16;;;17.95;68.08
78673;BME280;67988;60.086;30.354;2023-07-31T03:29:29;100467.56;;;17.88;68.65
78673;BME280;67988;60.086;30.354;2023-07-31T03:31:56;100469.41;;;17.88;68.84
78673;BME280;67988;60.086;30.354;2023-07-31T03:34:24;100468.06;;;17.92;68.56
78673;BME280;67988;60.086;30.354;2023-07-31T03:36:51;100434.28;;;17.81;68.68
78673;BME280;67988;60.086;30.354;2023-07-31T03:39:19;100467.69;;;18.03;68.39
78673;BME280;67988;60.086;30.354;2023-07-31T03:41:47;100464.31;;;18.09;68.95
78673;BME280;67988;60.086;30.354;2023-07-31T03:44:17;100467.31;;;18.14;68.41
78673;BME280;67988;60.086;30.354;2023-07-31T03:46:44;100457.69;;;18.20;68.32
78673;BME280;67988;60.086;30.354;2023-07-31T03:49:11;100460.06;;;18.15;68.69
78673;BME280;67988;60.086;30.354;2023-07-31T03:51:38;100459.38;;;18.21;68.46
78673;BME280;67988;60.086;30.354;2023-07-31T03:54:05;100450.53;;;18.35;68.71
78673;BME280;67988;60.086;30.354;2023-07-31T03:56:33;100454.22;;;18.42;68.10
78673;BME280;67988;60.086;30.354;2023-07-31T03:59:02;100447.13;;;18.49;68.55
78673;BME280;67988;60.086;30.354;2023-07-31T04:01:29;100422.75;;;18.34;67.97
78673;BME280;67988;60.086;30.354;2023-07-31T04:03:56;100459.84;;;18.63;68.42
78673;BME280;67988;60.086;30.354;2023-07-31T04:06:23;100458.13;;;18.70;67.88
78673;BME280;67988;60.086;30.354;2023-07-31T04:08:50;100456.28;;;18.71;68.45
78673;BME280;67988;60.086;30.354;2023-07-31T04:11:17;100454.38;;;18.79;68.23
78673;BME280;67988;60.086;30.354;2023-07-31T04:13:45;100449.56;;;18.90;67.71
78673;BME280;67988;60.086;30.354;2023-07-31T04:16:13;100449.16;;;19.01;67.94
78673;BME280;67988;60.086;30.354;2023-07-31T04:18:40;100414.91;;;18.87;67.31
78673;BME280;67988;60.086;30.354;2023-07-31T04:21:07;100450.31;;;19.21;67.28
78673;BME280;67988;60.086;30.354;2023-07-31T04:23:35;100425.13;;;19.14;66.51
78673;BME280;67988;60.086;30.354;2023-07-31T04:26:02;100447.69;;;19.36;66.97
78673;BME280;67988;60.086;30.354;2023-07-31T04:28:30;100434.94;;;19.44;66.34
78673;BME280;67988;60.086;30.354;2023-07-31T04:30:57;100415.31;;;19.36;66.04
78673;BME280;67988;60.086;30.354;2023-07-31T04:33:26;100441.06;;;19.61;65.58
78673;BME280;67988;60.086;30.354;2023-07-31T04:35:53;100445.88;;;19.66;65.78
78673;BME280;67988;60.086;30.354;2023-07-31T04:38:21;100449.09;;;19.69;65.90
78673;BME280;67988;60.086;30.354;2023-07-31T04:40:48;100447.00;;;19.71;66.12
78673;BME280;67988;60.086;30.354;2023-07-31T04:43:15;100452.63;;;19.84;65.72
78673;BME280;67988;60.086;30.354;2023-07-31T04:45:45;100417.97;;;19.73;65.79
78673;BME280;67988;60.086;30.354;2023-07-31T04:48:13;100445.06;;;19.94;65.61
78673;BME280;67988;60.086;30.354;2023-07-31T04:50:42;100435.22;;;20.01;65.11
78673;BME280;67988;60.086;30.354;2023-07-31T04:53:09;100444.22;;;20.09;65.22
78673;BME280;67988;60.086;30.354;2023-07-31T04:55:36;100437.88;;;20.16;64.41
78673;BME280;67988;60.086;30.354;2023-07-31T04:58:04;100432.50;;;20.16;64.34
78673;BME280;67988;60.086;30.354;2023-07-31T05:00:32;100435.28;;;20.23;64.07
78673;BME280;67988;60.086;30.354;2023-07-31T05:02:59;100411.16;;;20.07;63.79
78673;BME280;67988;60.086;30.354;2023-07-31T05:05:26;100429.94;;;20.29;63.72
78673;BME280;67988;60.086;30.354;2023-07-31T05:07:54;100434.81;;;20.34;63.26
78673;BME280;67988;60.086;30.354;2023-07-31T05:10:21;100430.88;;;20.36;63.02
78673;BME280;67988;60.086;30.354;2023-07-31T05:12:48;100433.69;;;20.43;62.99
78673;BME280;67988;60.086;30.354;2023-07-31T05:15:16;100429.78;;;20.45;62.49
78673;BME280;67988;60.086;30.354;2023-07-31T05:17:43;100431.31;;;20.55;61.57
78673;BME280;67988;60.086;30.354;2023-07-31T05:20:11;100431.84;;;20.65;61.40
78673;BME280;67988;60.086;30.354;2023-07-31T05:22:38;100430.69;;;20.74;61.22
78673;BME280;67988;60.086;30.354;2023-07-31T05:25:07;100436.00;;;20.82;61.35
78673;BME280;67988;60.086;30.354;2023-07-31T05:27:35;100431.19;;;20.84;61.17
78673;BME280;67988;60.086;30.354;2023-07-31T05:30:02;100416.03;;;20.83;60.33
78673;BME280;67988;60.086;30.354;2023-07-31T05:32:29;100428.25;;;21.00;59.92
78673;BME280;67988;60.086;30.354;2023-07-31T05:34:56;100399.31;;;21.01;59.12
78673;BME280;67988;60.086;30.354;2023-07-31T05:37:24;100427.44;;;21.21;58.85
78673;BME280;67988;60.086;30.354;2023-07-31T05:39:51;100423.56;;;21.30;58.44
78673;BME280;67988;60.086;30.354;2023-07-31T05:42:19;100427.34;;;21.36;57.50
78673;BME280;67988;60.086;30.354;2023-07-31T05:44:47;100422.22;;;21.47;56.89
78673;BME280;67988;60.086;30.354;2023-07-31T05:47:14;100422.91;;;21.56;56.29
78673;BME280;67988;60.086;30.354;2023-07-31T05:49:41;100418.38;;;21.63;56.37
78673;BME280;67988;60.086;30.354;2023-07-31T05:52:08;100409.06;;;21.72;55.32
78673;BME280;67988;60.086;30.354;2023-07-31T05:54:35;100418.31;;;21.84;54.40
78673;BME280;67988;60.086;30.354;2023-07-31T05:57:02;100416.09;;;21.94;54.09
78673;BME280;67988;60.086;30.354;2023-07-31T05:59:31;100421.34;;;22.02;53.36
78673;BME280;67988;60.086;30.354;2023-07-31T06:01:58;100421.41;;;22.09;52.82
78673;BME280;67988;60.086;30.354;2023-07-31T06:04:25;100418.91;;;22.21;52.26
78673;BME280;67988;60.086;30.354;2023-07-31T06:06:52;100417.91;;;22.28;52.28
78673;BME280;67988;60.086;30.354;2023-07-31T06:09:19;100412.72;;;22.33;52.23
78673;BME280;67988;60.086;30.354;2023-07-31T06:11:47;100417.97;;;22.41;52.61
78673;BME280;67988;60.086;30.354;2023-07-31T06:14:14;100422.56;;;22.47;53.05
78673;BME280;67988;60.086;30.354;2023-07-31T06:16:43;100414.03;;;22.50;53.06
78673;BME280;67988;60.086;30.354;2023-07-31T06:19:10;100411.97;;;22.59;52.76
78673;BME280;67988;60.086;30.354;2023-07-31T06:21:37;100421.81;;;22.67;52.86
78673;BME280;67988;60.086;30.354;2023-07-31T06:24:05;100412.19;;;22.71;52.78
78673;BME280;67988;60.086;30.354;2023-07-31T06:26:32;100413.13;;;22.84;51.74
78673;BME280;67988;60.086;30.354;2023-07-31T06:28:59;100412.28;;;22.97;51.59
78673;BME280;67988;60.086;30.354;2023-07-31T06:31:26;100405.59;;;23.00;51.37
78673;BME280;67988;60.086;30.354;2023-07-31T06:33:55;100407.69;;;23.04;50.78
78673;BME280;67988;60.086;30.354;2023-07-31T06:36:22;100403.72;;;23.13;50.34
78673;BME280;67988;60.086;30.354;2023-07-31T06:38:49;100409.59;;;23.17;50.30
78673;BME280;67988;60.086;30.354;2023-07-31T06:41:16;100408.75;;;23.23;49.61
78673;BME280;67988;60.086;30.354;2023-07-31T06:43:43;100408.72;;;23.29;48.59
78673;BME280;67988;60.086;30.354;2023-07-31T06:46:10;100411.25;;;23.44;47.53
78673;BME280;67988;60.086;30.354;2023-07-31T06:48:37;100405.63;;;23.52;46.27
78673;BME280;67988;60.086;30.354;2023-07-31T06:51:06;100407.28;;;23.60;45.56
78673;BME280;67988;60.086;30.354;2023-07-31T06:53:33;100409.16;;;23.59;45.44
78673;BME280;67988;60.086;30.354;2023-07-31T06:56:00;100413.31;;;23.75;45.67
78673;BME280;67988;60.086;30.354;2023-07-31T06:58:27;100409.53;;;23.83;45.08
78673;BME280;67988;60.086;30.354;2023-07-31T07:00:54;100408.84;;;24.00;45.40
78673;BME280;67988;60.086;30.354;2023-07-31T07:03:21;100405.72;;;24.03;45.58
78673;BME280;67988;60.086;30.354;2023-07-31T07:05:48;100407.78;;;24.08;45.21
78673;BME280;67988;60.086;30.354;2023-07-31T07:08:17;100407.34;;;24.17;44.87
78673;BME280;67988;60.086;30.354;2023-07-31T07:10:44;100405.81;;;24.35;44.51
78673;BME280;67988;60.086;30.354;2023-07-31T07:13:11;100409.75;;;24.39;44.00
78673;BME280;67988;60.086;30.354;2023-07-31T07:15:39;100400.16;;;24.36;44.48
78673;BME280;67988;60.086;30.354;2023-07-31T07:18:06;100404.06;;;24.53;44.13
78673;BME280;67988;60.086;30.354;2023-07-31T07:20:33;100410.03;;;24.69;44.20
78673;BME280;67988;60.086;30.354;2023-07-31T07:23:00;100407.94;;;24.71;43.28
78673;BME280;67988;60.086;30.354;2023-07-31T07:25:29;100411.22;;;24.79;43.14
78673;BME280;67988;60.086;30.354;2023-07-31T07:27:56;100409.63;;;25.03;42.98
78673;BME280;67988;60.086;30.354;2023-07-31T07:30:23;100408.34;;;25.06;42.69
78673;BME280;67988;60.086;30.354;2023-07-31T07:32:51;100408.44;;;25.17;42.40
78673;BME280;67988;60.086;30.354;2023-07-31T07:35:18;100411.63;;;25.14;42.30
78673;BME280;67988;60.086;30.354;2023-07-31T07:37:45;100402.66;;;25.32;42.25
78673;BME280;67988;60.086;30.354;2023-07-31T07:40:15;100398.72;;;25.53;41.63
78673;BME280;67988;60.086;30.354;2023-07-31T07:42:44;100401.88;;;25.50;41.36
78673;BME280;67988;60.086;30.354;2023-07-31T07:45:11;100401.94;;;25.68;41.09
78673;BME280;67988;60.086;30.354;2023-07-31T07:47:38;100399.53;;;25.53;40.22
78673;BME280;67988;60.086;30.354;2023-07-31T07:50:06;100402.72;;;25.50;39.13
78673;BME280;67988;60.086;30.354;2023-07-31T07:52:34;100396.88;;;25.71;38.82
78673;BME280;67988;60.086;30.354;2023-07-31T07:55:01;100404.59;;;25.74;38.54
78673;BME280;67988;60.086;30.354;2023-07-31T07:57:29;100406.25;;;25.75;38.66
78673;BME280;67988;60.086;30.354;2023-07-31T07:59:57;100399.00;;;25.88;38.71
78673;BME280;67988;60.086;30.354;2023-07-31T08:02:24;100398.78;;;25.89;39.15
78673;BME280;67988;60.086;30.354;2023-07-31T08:04:52;100403.84;;;25.86;39.66
78673;BME280;67988;60.086;30.354;2023-07-31T08:07:19;100404.59;;;25.93;39.63
78673;BME280;67988;60.086;30.354;2023-07-31T08:09:46;100401.88;;;25.93;38.99
78673;BME280;67988;60.086;30.354;2023-07-31T08:12:13;100406.19;;;26.00;38.58
78673;BME280;67988;60.086;30.354;2023-07-31T08:14:40;100404.91;;;25.85;38.43
78673;BME280;67988;60.086;30.354;2023-07-31T08:17:08;100397.88;;;25.95;38.64
78673;BME280;67988;60.086;30.354;2023-07-31T08:19:36;100403.16;;;25.90;38.70
78673;BME280;67988;60.086;30.354;2023-07-31T08:22:03;100414.22;;;25.95;38.83
78673;BME280;67988;60.086;30.354;2023-07-31T08:24:30;100410.41;;;26.14;38.45
78673;BME280;67988;60.086;30.354;2023-07-31T08:26:57;100414.31;;;26.07;37.49
78673;BME280;67988;60.086;30.354;2023-07-31T08:29:25;100408.91;;;26.00;37.20
78673;BME280;67988;60.086;30.354;2023-07-31T08:31:52;100411.66;;;26.00;36.69
78673;BME280;67988;60.086;30.354;2023-07-31T08:34:20;100414.59;;;25.99;36.80
78673;BME280;67988;60.086;30.354;2023-07-31T08:36:47;100418.38;;;26.16;36.93
78673;BME280;67988;60.086;30.354;2023-07-31T08:39:15;100410.53;;;26.26;36.85
78673;BME280;67988;60.086;30.354;2023-07-31T08:41:42;100410.56;;;26.19;36.99
78673;BME280;67988;60.086;30.354;2023-07-31T08:44:10;100413.16;;;26.14;37.33
78673;BME280;67988;60.086;30.354;2023-07-31T08:46:39;100414.13;;;26.20;37.09
78673;BME280;67988;60.086;30.354;2023-07-31T08:49:07;100405.38;;;26.18;37.06
78673;BME280;67988;60.086;30.354;2023-07-31T08:51:36;100414.91;;;26.27;36.92
78673;BME280;67988;60.086;30.354;2023-07-31T08:54:03;100418.47;;;26.28;36.40
78673;BME280;67988;60.086;30.354;2023-07-31T08:56:32;100426.47;;;26.41;35.81
78673;BME280;67988;60.086;30.354;2023-07-31T08:59:02;100417.66;;;26.57;35.03
78673;BME280;67988;60.086;30.354;2023-07-31T09:01:35;100422.19;;;26.63;35.16
78673;BME280;67988;60.086;30.354;2023-07-31T09:04:04;100421.34;;;26.62;35.53
78673;BME280;67988;60.086;30.354;2023-07-31T09:06:32;100416.72;;;26.63;36.27
78673;BME280;67988;60.086;30.354;2023-07-31T09:09:01;100416.44;;;26.71;36.09
78673;BME280;67988;60.086;30.354;2023-07-31T09:11:28;100422.03;;;26.76;35.67
78673;BME280;67988;60.086;30.354;2023-07-31T09:13:57;100426.50;;;27.00;35.34
78673;BME280;67988;60.086;30.354;2023-07-31T09:16:28;100425.09;;;26.80;35.52
78673;BME280;67988;60.086;30.354;2023-07-31T09:18:58;100424.81;;;26.88;35.08
78673;BME280;67988;60.086;30.354;2023-07-31T09:21:27;100427.47;;;26.76;34.67
78673;BME280;67988;60.086;30.354;2023-07-31T09:23:54;100427.47;;;26.94;34.85
78673;BME280;67988;60.086;30.354;2023-07-31T09:26:33;100428.75;;;26.74;33.77
78673;BME280;67988;60.086;30.354;2023-07-31T09:29:03;100422.47;;;26.73;34.52
78673;BME280;67988;60.086;30.354;2023-07-31T09:31:39;100424.88;;;26.81;34.87
78673;BME280;67988;60.086;30.354;2023-07-31T09:34:07;100422.97;;;27.00;34.57
78673;BME280;67988;60.086;30.354;2023-07-31T09:36:40;100416.06;;;26.97;33.88
78673;BME280;67988;60.086;30.354;2023-07-31T09:39:09;100425.22;;;27.03;34.18
78673;BME280;67988;60.086;30.354;2023-07-31T09:41:38;100424.78;;;27.41;33.78
78673;BME280;67988;60.086;30.354;2023-07-31T09:44:06;100428.03;;;27.73;33.41
78673;BME280;67988;60.086;30.354;2023-07-31T09:46:35;100421.47;;;27.97;33.40
78673;BME280;67988;60.086;30.354;2023-07-31T09:49:07;100419.72;;;27.79;33.06
78673;BME280;67988;60.086;30.354;2023-07-31T09:51:36;100409.59;;;27.92;32.52
78673;BME280;67988;60.086;30.354;2023-07-31T09:54:11;100412.31;;;28.03;32.04
78673;BME280;67988;60.086;30.354;2023-07-31T09:56:43;100413.50;;;28.07;31.57
78673;BME280;67988;60.086;30.354;2023-07-31T09:59:12;100412.22;;;27.86;31.97
78673;BME280;67988;60.086;30.354;2023-07-31T10:01:40;100402.34;;;27.85;31.61
78673;BME280;67988;60.086;30.354;2023-07-31T10:04:08;100404.91;;;28.15;31.20
78673;BME280;67988;60.086;30.354;2023-07-31T10:06:38;100407.91;;;28.25;29.86
78673;BME280;67988;60.086;30.354;2023-07-31T10:09:07;100401.09;;;28.05;29.66
78673;BME280;67988;60.086;30.354;2023-07-31T10:11:38;100397.81;;;28.14;30.43
78673;BME280;67988;60.086;30.354;2023-07-31T10:14:11;100402.94;;;28.39;31.20
78673;BME280;67988;60.086;30.354;2023-07-31T10:16:38;100402.72;;;28.69;31.85
78673;BME280;67988;60.086;30.354;2023-07-31T10:19:07;100408.59;;;28.89;31.76
78673;BME280;67988;60.086;30.354;2023-07-31T10:21:36;100405.16;;;28.82;31.26
78673;BME280;67988;60.086;30.354;2023-07-31T10:24:05;100407.47;;;28.45;32.08
78673;BME280;67988;60.086;30.354;2023-07-31T10:26:32;100413.16;;;28.44;31.77
78673;BME280;67988;60.086;30.354;2023-07-31T10:29:00;100405.66;;;28.79;31.23
78673;BME280;67988;60.086;30.354;2023-07-31T10:31:28;100407.59;;;28.95;31.17
78673;BME280;67988;60.086;30.354;2023-07-31T10:33:57;100393.47;;;29.03;31.22
78673;BME280;67988;60.086;30.354;2023-07-31T10:36:25;100398.97;;;29.03;31.00
78673;BME280;67988;60.086;30.354;2023-07-31T10:38:52;100387.53;;;29.23;30.85
78673;BME280;67988;60.086;30.354;2023-07-31T10:41:28;100392.56;;;29.65;29.90
78673;BME280;67988;60.086;30.354;2023-07-31T10:43:58;100396.72;;;29.67;28.96
78673;BME280;67988;60.086;30.354;2023-07-31T10:46:25;100391.72;;;29.64;29.46
78673;BME280;67988;60.086;30.354;2023-07-31T10:48:59;100378.88;;;29.48;29.81
78673;BME280;67988;60.086;30.354;2023-07-31T10:51:33;100393.31;;;29.10;29.81
78673;BME280;67988;60.086;30.354;2023-07-31T10:54:10;100392.50;;;29.43;30.13
78673;BME280;67988;60.086;30.354;2023-07-31T10:56:38;100387.75;;;29.72;29.73
78673;BME280;67988;60.086;30.354;2023-07-31T10:59:05;100384.22;;;29.76;29.43
78673;BME280;67988;60.086;30.354;2023-07-31T11:01:51;100383.53;;;29.14;29.86
78673;BME280;67988;60.086;30.354;2023-07-31T11:04:24;100389.59;;;29.49;30.60
78673;BME280;67988;60.086;30.354;2023-07-31T11:06:56;100379.28;;;29.95;29.42
78673;BME280;67988;60.086;30.354;2023-07-31T11:09:27;100384.63;;;30.28;28.40
78673;BME280;67988;60.086;30.354;2023-07-31T11:11:55;100384.50;;;30.40;27.67
78673;BME280;67988;60.086;30.354;2023-07-31T11:14:23;100368.25;;;30.60;28.24
78673;BME280;67988;60.086;30.354;2023-07-31T11:16:50;100371.59;;;30.62;27.98
78673;BME280;67988;60.086;30.354;2023-07-31T11:19:23;100365.31;;;30.67;27.83
78673;BME280;67988;60.086;30.354;2023-07-31T11:21:51;100365.47;;;30.82;28.25
78673;BME280;67988;60.086;30.354;2023-07-31T11:24:20;100378.56;;;31.02;27.69
78673;BME280;67988;60.086;30.354;2023-07-31T11:26:50;100368.75;;;31.48;26.62
78673;BME280;67988;60.086;30.354;2023-07-31T11:29:18;100367.34;;;31.40;26.94
78673;BME280;67988;60.086;30.354;2023-07-31T11:31:47;100372.44;;;31.59;26.30
78673;BME280;67988;60.086;30.354;2023-07-31T11:34:15;100365.31;;;31.63;26.22
78673;BME280;67988;60.086;30.354;2023-07-31T11:36:54;100372.56;;;31.84;26.46
78673;BME280;67988;60.086;30.354;2023-07-31T11:39:21;100363.25;;;31.90;26.37
78673;BME280;67988;60.086;30.354;2023-07-31T11:41:48;100360.19;;;31.86;25.77
78673;BME280;67988;60.086;30.354;2023-07-31T11:44:16;100362.41;;;31.84;26.51
78673;BME280;67988;60.086;30.354;2023-07-31T11:46:42;100368.22;;;32.91;25.67
78673;BME280;67988;60.086;30.354;2023-07-31T11:49:10;100354.94;;;33.79;24.17
78673;BME280;67988;60.086;30.354;2023-07-31T11:51:38;100351.94;;;33.45;23.62
78673;BME280;67988;60.086;30.354;2023-07-31T11:54:06;100342.03;;;33.29;22.96
78673;BME280;67988;60.086;30.354;2023-07-31T11:56:33;100344.25;;;34.16;22.36
78673;BME280;67988;60.086;30.354;2023-07-31T11:59:01;100342.47;;;35.23;21.44
78673;BME280;67988;60.086;30.354;2023-07-31T12:01:31;100349.66;;;36.81;19.47
78673;BME280;67988;60.086;30.354;2023-07-31T12:03:59;100345.63;;;37.52;18.87
78673;BME280;67988;60.086;30.354;2023-07-31T12:06:33;100339.22;;;39.05;16.77
78673;BME280;67988;60.086;30.354;2023-07-31T12:09:02;100330.34;;;39.65;16.80
78673;BME280;67988;60.086;30.354;2023-07-31T12:11:31;100329.31;;;39.52;16.46
78673;BME280;67988;60.086;30.354;2023-07-31T12:13:58;100330.88;;;39.36;15.90
78673;BME280;67988;60.086;30.354;2023-07-31T12:16:26;100330.88;;;39.76;15.65
78673;BME280;67988;60.086;30.354;2023-07-31T12:18:53;100331.44;;;38.58;17.07
78673;BME280;67988;60.086;30.354;2023-07-31T12:21:20;100326.94;;;37.71;17.88
78673;BME280;67988;60.086;30.354;2023-07-31T12:23:48;100332.59;;;38.43;17.68
78673;BME280;67988;60.086;30.354;2023-07-31T12:26:16;100326.25;;;39.31;16.31
78673;BME280;67988;60.086;30.354;2023-07-31T12:28:45;100329.69;;;41.19;14.65
78673;BME280;67988;60.086;30.354;2023-07-31T12:31:14;100327.84;;;41.32;15.07
78673;BME280;67988;60.086;30.354;2023-07-31T12:33:42;100330.19;;;42.27;13.88
78673;BME280;67988;60.086;30.354;2023-07-31T12:36:11;100321.34;;;42.99;13.17
78673;BME280;67988;60.086;30.354;2023-07-31T12:38:39;100305.47;;;43.36;12.95
78673;BME280;67988;60.086;30.354;2023-07-31T12:41:06;100316.25;;;44.07;12.26
78673;BME280;67988;60.086;30.354;2023-07-31T12:43:33;100310.97;;;45.45;10.09
78673;BME280;67988;60.086;30.354;2023-07-31T12:46:02;100311.38;;;46.09;10.28